createdAt,value
2022-12-18T00:02:38.816Z,15
2022-12-18T00:12:40.729Z,15
2022-12-18T00:22:43.257Z,15
2022-12-18T00:32:45.832Z,15
2022-12-18T00:42:48.131Z,15
2022-12-18T01:02:53.115Z,15
2022-12-18T01:12:55.634Z,15
2022-12-18T01:22:57.525Z,15
2022-12-18T01:32:59.526Z,15
2022-12-18T01:43:01.393Z,15
2022-12-18T01:53:03.544Z,15
2022-12-18T02:03:05.718Z,15
2022-12-18T02:13:07.864Z,15
2022-12-18T02:23:10.065Z,15
2022-12-18T02:33:12.554Z,15
2022-12-18T02:53:17.294Z,15
2022-12-18T03:13:22.087Z,15
2022-12-18T03:23:26.208Z,15
2022-12-18T03:43:27.877Z,15
2022-12-18T03:53:29.997Z,15
2022-12-18T04:13:34.504Z,14.9
2022-12-18T04:33:39.180Z,14.9
2022-12-18T04:53:44.094Z,14.9
2022-12-18T05:53:57.367Z,14.9
2022-12-18T06:44:08.451Z,14.9
2022-12-18T06:54:10.322Z,14.9
2022-12-18T07:04:12.550Z,14.9
2022-12-18T07:24:16.934Z,14.9
2022-12-18T07:44:21.744Z,14.9
2022-12-18T07:54:23.589Z,14.9
2022-12-18T08:04:25.785Z,14.9
2022-12-18T08:14:27.514Z,14.9
2022-12-18T08:24:29.925Z,15
2022-12-18T08:54:35.829Z,15
2022-12-18T09:14:40.187Z,15.1
2022-12-18T09:24:42.096Z,15.1
2022-12-18T09:34:44.246Z,15.1
2022-12-18T09:44:46.525Z,15.2
2022-12-18T09:54:48.965Z,15.2
2022-12-18T10:04:50.746Z,15.2
2022-12-18T10:14:53.414Z,15.3
2022-12-18T10:24:55.236Z,15.3
2022-12-18T10:35:00.370Z,15.3
2022-12-18T10:44:59.722Z,15.3
2022-12-18T10:55:01.951Z,15.3
2022-12-18T11:05:03.948Z,15.3
2022-12-18T11:25:31.221Z,15.4
2022-12-18T11:35:10.462Z,15.4
2022-12-18T11:45:12.189Z,15.4
2022-12-18T12:05:17.070Z,15.4
2022-12-18T12:15:19.147Z,15.4
2022-12-18T12:35:23.276Z,15.4
2022-12-18T12:45:25.540Z,15.4
2022-12-18T12:55:27.911Z,15.5
2022-12-18T13:05:29.972Z,15.5
2022-12-18T13:15:32.355Z,15.5
2022-12-18T13:35:35.726Z,15.5
2022-12-18T13:45:37.617Z,15.5
2022-12-18T13:55:39.833Z,15.5
2022-12-18T14:05:42.889Z,15.5
2022-12-18T14:15:44.370Z,15.5
2022-12-18T14:25:46.308Z,15.5
2022-12-18T14:35:48.554Z,15.5
2022-12-18T14:45:51.155Z,15.5
2022-12-18T14:55:52.867Z,15.5
2022-12-18T15:05:54.576Z,15.5
2022-12-18T15:15:56.749Z,15.5
2022-12-18T15:25:58.608Z,15.5
2022-12-18T15:36:00.938Z,15.5
2022-12-18T15:56:05.533Z,15.5
2022-12-18T16:16:10.048Z,15.5
2022-12-18T16:46:16.484Z,15.5
2022-12-18T17:36:27.214Z,15.6
2022-12-18T18:26:37.315Z,15.6
2022-12-18T18:36:39.170Z,15.6
2022-12-18T18:46:41.356Z,15.6
2022-12-18T18:57:19.209Z,15.6
2022-12-18T19:06:46.024Z,15.6
2022-12-18T19:26:50.782Z,15.5
2022-12-18T19:36:56.623Z,15.5
2022-12-18T19:46:55.388Z,15.5
2022-12-18T19:56:57.223Z,15.5
2022-12-18T20:06:58.964Z,15.5
2022-12-18T20:17:01.248Z,15.5
2022-12-18T20:27:03.194Z,15.5
2022-12-18T20:37:05.199Z,15.5
2022-12-18T20:47:07.485Z,15.5
2022-12-18T21:07:11.956Z,15.5
2022-12-18T21:17:14.548Z,15.5
2022-12-18T21:27:17.634Z,15.5
2022-12-18T21:37:19.011Z,15.5
2022-12-18T21:47:21.625Z,15.5
2022-12-18T21:57:23.428Z,15.5
2022-12-18T22:07:25.924Z,15.5
2022-12-18T22:17:28.424Z,15.6
2022-12-18T22:27:37.327Z,15.6
2022-12-18T22:37:40.007Z,15.6
2022-12-18T22:47:41.948Z,15.6
2022-12-18T22:57:44.419Z,15.6
2022-12-18T23:07:46.239Z,15.6
2022-12-18T23:17:48.181Z,15.6
2022-12-18T23:27:50.781Z,15.6
2022-12-18T23:37:59.578Z,15.6
2022-12-18T23:47:54.646Z,15.6
2022-12-18T23:57:56.710Z,15.6
